Time;durP1;ratioP1;P1;durP2;ratioP2;P2;SDS_P1;SDS_P2;PMS_P1;PMS_P2;Temp;Humidity;BMP_temperature;BMP_pressure;BME280_temperature;BME280_humidity;BME280_pressure;Samples;Min_cycle;Max_cycle;Signal;HPM_P1;HPM_P2
2020/12/28 00:00:12;;;;;;;11.45;5.90;;;;;;;-1.26;85.21;96394.72;5058853;28;19908;-81
2020/12/28 00:02:38;;;;;;;14.18;6.78;;;;;;;-1.33;85.31;96403.00;5041685;28;20006;-81
2020/12/28 00:05:11;;;;;;;14.02;6.75;;;;;;;-1.45;85.21;96385.50;5041473;28;20012;-81
2020/12/28 00:07:37;;;;;;;9.27;5.78;;;;;;;-1.43;85.67;96394.88;5040996;28;20036;-80
2020/12/28 00:10:05;;;;;;;13.00;6.55;;;;;;;-1.25;85.74;96402.50;5058492;28;20018;-81
2020/12/28 00:12:46;;;;;;;15.35;7.72;;;;;;;-1.12;85.66;96418.16;5040986;28;20025;-81
2020/12/28 00:15:16;;;;;;;18.15;8.68;;;;;;;-1.04;85.47;96434.81;5052260;28;20041;-82
2020/12/28 00:17:46;;;;;;;13.48;7.18;;;;;;;-1.41;85.67;96382.03;5041107;28;20044;-81
2020/12/28 00:20:12;;;;;;;13.18;6.97;;;;;;;-1.40;86.17;96382.84;5041350;28;20006;-84
2020/12/28 00:22:38;;;;;;;14.45;7.25;;;;;;;-1.50;86.48;96386.25;5057595;28;20073;-83
2020/12/28 00:25:04;;;;;;;11.30;5.93;;;;;;;-1.52;86.64;96383.03;5041464;28;20044;-81
2020/12/28 00:27:33;;;;;;;10.68;6.82;;;;;;;-1.51;86.79;96371.25;5040962;28;20014;-81
2020/12/28 00:30:01;;;;;;;12.13;7.30;;;;;;;-1.47;86.62;96355.47;5041063;28;20044;-80
2020/12/28 00:32:26;;;;;;;10.60;6.85;;;;;;;-1.47;86.40;96334.03;5041083;28;20059;-81
2020/12/28 00:34:52;;;;;;;9.07;6.43;;;;;;;-1.45;86.66;96343.41;5058048;28;20014;-82
2020/12/28 00:37:17;;;;;;;11.55;6.65;;;;;;;-1.41;86.60;96336.44;5040898;28;20009;-81
2020/12/28 00:39:46;;;;;;;13.60;7.35;;;;;;;-1.47;86.63;96329.44;5040715;28;20041;-81
2020/12/28 00:42:11;;;;;;;13.43;7.53;;;;;;;-1.65;86.88;96328.00;5057791;28;20013;-81
2020/12/28 00:44:37;;;;;;;14.38;8.07;;;;;;;-1.52;87.32;96326.75;5040834;28;20108;-81
2020/12/28 00:47:02;;;;;;;;;;;;;;;-1.29;87.31;96350.47;5057938;28;20014;-84
2020/12/28 00:49:28;;;;;;;13.65;7.50;;;;;;;-1.47;87.13;96323.31;5057880;28;19897;-80
2020/12/28 00:51:53;;;;;;;14.82;6.57;;;;;;;-1.40;86.74;96308.56;5057040;28;20006;-82
2020/12/28 00:54:20;;;;;;;9.77;6.20;;;;;;;-1.39;86.00;96301.34;5040936;28;20052;-80
2020/12/28 00:56:49;;;;;;;18.45;8.13;;;;;;;-1.46;86.49;96306.13;5057798;28;20026;-82
2020/12/28 00:59:15;;;;;;;17.42;6.25;;;;;;;-1.21;86.82;96327.72;5057799;28;20031;-82
2020/12/28 01:01:40;;;;;;;15.93;6.50;;;;;;;-1.39;86.77;96290.63;5057735;28;20017;-83
2020/12/28 01:04:06;;;;;;;11.82;7.35;;;;;;;-1.53;86.74;96295.63;5040693;28;20013;-84
2020/12/28 01:06:31;;;;;;;13.32;7.45;;;;;;;-1.37;87.16;96299.22;5040411;28;20081;-83
2020/12/28 01:08:57;;;;;;;;;;;;;;;-1.24;87.31;96312.16;5049934;28;20077;-82
2020/12/28 01:11:22;;;;;;;17.33;6.65;;;;;;;-1.45;87.55;96284.44;5040507;28;19931;-81
2020/12/28 01:13:47;;;;;;;;;;;;;;;-1.26;87.54;96314.28;5057738;28;20027;-82
2020/12/28 01:16:13;;;;;;;13.55;6.47;;;;;;;-1.45;87.45;96272.91;5040572;28;19925;-82
2020/12/28 01:18:40;;;;;;;;;;;;;;;-1.26;87.83;96290.97;5057974;28;20021;-82
2020/12/28 01:21:06;;;;;;;11.57;6.43;;;;;;;-1.53;87.71;96260.78;5040113;28;19901;-84
2020/12/28 01:23:31;;;;;;;;;;;;;;;-1.27;87.54;96285.84;5057962;28;20014;-81
2020/12/28 01:25:57;;;;;;;14.20;6.82;;;;;;;-1.52;87.78;96250.88;5040983;28;19908;-84
2020/12/28 01:28:22;;;;;;;8.90;6.45;;;;;;;-1.72;88.09;96256.94;5057225;28;20021;-84
2020/12/28 01:30:48;;;;;;;;;;;;;;;-1.33;88.37;96277.00;5040618;28;20041;-83
2020/12/28 01:33:13;;;;;;;10.45;6.43;;;;;;;-1.58;88.41;96247.38;5040257;28;19932;-84
2020/12/28 01:35:41;;;;;;;;;;;;;;;-1.35;88.51;96275.63;5060378;28;20037;-82
2020/12/28 01:38:06;;;;;;;15.10;6.28;;;;;;;-1.57;88.15;96235.59;5044198;28;19919;-84
2020/12/28 01:40:33;;;;;;;9.13;5.80;;;;;;;-1.57;88.07;96232.94;5044238;28;20037;-81
2020/12/28 01:42:59;;;;;;;10.68;6.00;;;;;;;-1.47;88.32;96243.66;5061329;28;20010;-82
2020/12/28 01:45:25;;;;;;;13.82;6.82;;;;;;;-1.71;88.58;96237.13;5061149;28;20033;-82
2020/12/28 01:47:50;;;;;;;9.02;6.22;;;;;;;-1.62;88.84;96235.56;5044144;28;20037;-85
2020/12/28 01:50:17;;;;;;;16.85;6.60;;;;;;;-1.73;89.35;96220.50;5060685;28;20010;-82
2020/12/28 01:52:42;;;;;;;10.63;7.15;;;;;;;-1.85;89.39;96220.69;5043779;28;20053;-85
2020/12/28 01:55:09;;;;;;;16.27;6.78;;;;;;;-1.58;89.81;96263.47;5061248;28;20044;-84
2020/12/28 01:57:35;;;;;;;14.88;7.63;;;;;;;-1.92;89.88;96227.38;5060597;28;20073;-82
2020/12/28 02:00:00;;;;;;;11.48;6.50;;;;;;;-1.78;89.70;96217.78;5060891;28;20017;-82
2020/12/28 02:02:28;;;;;;;14.13;7.60;;;;;;;-1.56;89.16;96223.78;5060865;28;20029;-82
2020/12/28 02:04:54;;;;;;;12.95;7.97;;;;;;;-1.75;88.88;96231.47;5043885;28;20014;-83
2020/12/28 02:07:23;;;;;;;10.57;6.53;;;;;;;-1.65;89.44;96236.09;5043933;28;20005;-83
2020/12/28 02:09:49;;;;;;;13.82;8.00;;;;;;;-1.95;89.66;96209.16;5043809;28;20010;-81
2020/12/28 02:12:14;;;;;;;14.40;6.25;;;;;;;-1.82;89.76;96220.22;5043600;28;20081;-82
2020/12/28 02:14:40;;;;;;;13.63;7.45;;;;;;;-1.87;90.03;96224.72;5060715;28;20020;-83
2020/12/28 02:17:05;;;;;;;;;;;;;;;-1.66;90.12;96237.16;5044062;28;20017;-81
2020/12/28 02:19:31;;;;;;;11.68;6.55;;;;;;;-2.13;90.89;96204.22;5043541;28;19901;-84
2020/12/28 02:21:56;;;;;;;11.50;6.72;;;;;;;-2.13;91.21;96212.25;5043496;28;20006;-84
2020/12/28 02:24:22;;;;;;;10.15;5.72;;;;;;;-2.21;90.84;96198.28;5059774;28;20029;-84
2020/12/28 02:26:47;;;;;;;;;;;;;;;-1.88;91.01;96225.78;5061259;28;20060;-83
2020/12/28 02:29:13;;;;;;;12.02;7.47;;;;;;;-2.19;91.03;96204.16;5060504;28;19900;-84
2020/12/28 02:31:39;;;;;;;13.85;6.63;;;;;;;-2.09;91.32;96194.59;5059949;28;20029;-81
2020/12/28 02:34:04;;;;;;;10.35;5.82;;;;;;;-2.11;90.38;96188.69;5042903;28;20022;-84
2020/12/28 02:36:30;;;;;;;12.35;7.25;;;;;;;-2.07;90.92;96206.69;5059922;28;20017;-82
2020/12/28 02:38:55;;;;;;;;;;;;;;;-1.79;90.75;96230.41;5060633;28;20017;-81
2020/12/28 02:41:25;;;;;;;13.63;7.32;;;;;;;-2.02;90.54;96192.50;5043261;28;19924;-82
2020/12/28 02:43:51;;;;;;;14.38;7.32;;;;;;;-1.83;90.05;96202.50;5060067;28;20009;-84
2020/12/28 02:46:18;;;;;;;17.15;7.53;;;;;;;-1.87;90.40;96200.59;5059478;28;20017;-82
2020/12/28 02:48:43;;;;;;;19.63;6.93;;;;;;;-1.84;89.61;96216.16;5042780;28;20033;-82
2020/12/28 02:51:12;;;;;;;11.27;6.75;;;;;;;-1.88;89.63;96209.72;5042893;28;20025;-81
2020/12/28 02:53:37;;;;;;;10.02;5.72;;;;;;;-1.85;89.55;96198.50;5059713;28;20051;-84
2020/12/28 02:56:03;;;;;;;13.95;7.32;;;;;;;-1.82;89.38;96208.69;5060456;28;20010;-84
2020/12/28 02:58:28;;;;;;;;;;;;;;;-1.38;88.74;96242.09;5060218;28;20013;-82
2020/12/28 03:00:54;;;;;;;8.50;5.60;;;;;;;-1.65;88.23;96209.28;5042818;28;19900;-84
2020/12/28 03:03:19;;;;;;;12.88;5.95;;;;;;;-1.72;88.27;96206.84;5059499;28;20017;-83
2020/12/28 03:05:45;;;;;;;;;;;;;;;-1.51;88.52;96237.25;5043170;28;20017;-84
2020/12/28 03:08:10;;;;;;;8.85;5.85;;;;;;;-1.71;88.70;96216.50;5042819;28;19936;-82
2020/12/28 03:10:36;;;;;;;15.45;6.68;;;;;;;-1.81;88.06;96199.56;5042752;28;21685;-84
2020/12/28 03:13:01;;;;;;;9.45;5.93;;;;;;;-1.69;88.06;96214.34;5059515;28;20017;-83
2020/12/28 03:15:27;;;;;;;13.27;6.80;;;;;;;-1.66;87.81;96213.06;5042436;28;20065;-82
2020/12/28 03:17:52;;;;;;;;;;;;;;;-1.32;87.26;96240.25;5059880;28;20018;-82
2020/12/28 03:20:17;;;;;;;11.60;5.95;;;;;;;-1.55;86.96;96208.53;5059597;28;19992;-81
2020/12/28 03:22:43;;;;;;;;;;;;;;;-1.23;87.24;96254.78;5042785;28;20016;-82
2020/12/28 03:25:08;;;;;;;7.93;4.35;;;;;;;-1.73;86.85;96220.50;5059962;28;19925;-84
2020/12/28 03:27:36;;;;;;;8.70;4.95;;;;;;;-1.60;87.32;96228.09;5059363;28;20101;-81
2020/12/28 03:30:07;;;;;;;6.55;4.75;;;;;;;-1.71;86.92;96211.16;5059055;28;20014;-83
2020/12/28 03:32:32;;;;;;;9.25;5.75;;;;;;;-1.57;86.78;96232.94;5042069;28;20009;-82
2020/12/28 03:34:58;;;;;;;16.40;7.20;;;;;;;-1.47;86.98;96235.63;5042107;28;20013;-82
2020/12/28 03:37:23;;;;;;;;;;;;;;;-1.35;86.25;96236.25;5059535;28;20101;-82
2020/12/28 03:39:48;;;;;;;10.68;5.35;;;;;;;-1.52;86.39;96219.53;5041949;28;19925;-82
2020/12/28 03:42:14;;;;;;;;;;;;;;;-1.28;85.82;96230.59;5042041;28;20010;-82
2020/12/28 03:44:39;;;;;;;10.90;5.57;;;;;;;-1.49;86.12;96204.78;5041865;28;19905;-85
2020/12/28 03:47:05;;;;;;;;;;;;;;;-1.47;86.37;96245.56;5059481;28;20036;-82
2020/12/28 03:49:30;;;;;;;8.38;5.45;;;;;;;-1.87;87.13;96201.41;5041927;28;19959;-84
2020/12/28 03:51:56;;;;;;;;;;;;;;;-1.61;87.69;96245.22;5058205;28;20017;-82
2020/12/28 03:54:21;;;;;;;9.20;5.55;;;;;;;-1.84;87.86;96221.50;5041149;28;19975;-83
2020/12/28 03:56:46;;;;;;;;;;;;;;;-1.55;87.52;96252.22;5058656;28;20012;-85
2020/12/28 03:59:12;;;;;;;11.23;5.30;;;;;;;-1.84;87.47;96218.84;5058757;28;19964;-82
2020/12/28 04:01:38;;;;;;;10.45;5.35;;;;;;;-1.84;87.11;96242.94;5058684;28;20013;-83
2020/12/28 04:04:03;;;;;;;6.25;4.13;;;;;;;-1.86;86.90;96231.69;5041317;28;20077;-82
2020/12/28 04:06:28;;;;;;;;;;;;;;;-1.49;87.02;96253.03;5041814;28;20022;-81
2020/12/28 04:08:54;;;;;;;9.20;5.25;;;;;;;-1.62;87.19;96262.34;5058702;28;19901;-81
2020/12/28 04:11:19;;;;;;;10.55;5.22;;;;;;;-1.83;87.18;96233.84;5041576;28;20013;-81
2020/12/28 04:13:45;;;;;;;7.68;5.47;;;;;;;-1.40;86.97;96271.03;5058273;28;20021;-83
2020/12/28 04:16:13;;;;;;;;;;;;;;;-1.39;87.11;96253.09;5041682;28;20041;-82
2020/12/28 04:18:39;;;;;;;8.70;5.25;;;;;;;-1.64;87.17;96243.06;5058453;28;19923;-81
2020/12/28 04:21:04;;;;;;;9.65;4.65;;;;;;;-1.49;87.62;96256.53;5041451;28;20006;-83
2020/12/28 04:23:30;;;;;;;13.05;5.82;;;;;;;-1.55;87.71;96209.34;5057920;28;20017;-81
2020/12/28 04:25:55;;;;;;;12.35;7.25;;;;;;;-1.56;87.63;96213.06;5058475;28;20073;-82
2020/12/28 04:28:21;;;;;;;12.23;6.20;;;;;;;-1.46;87.06;96213.13;5057851;28;20029;-80
2020/12/28 04:30:48;;;;;;;9.73;7.30;;;;;;;-1.69;87.36;96192.91;5041130;28;20013;-83
2020/12/28 04:33:14;;;;;;;11.80;5.47;;;;;;;-1.71;87.54;96200.44;5057945;28;20036;-81
2020/12/28 04:35:45;;;;;;;10.80;5.45;;;;;;;-1.80;86.71;96183.25;5040915;28;20017;-81
2020/12/28 04:38:11;;;;;;;8.93;5.80;;;;;;;-1.75;86.92;96179.75;5057936;28;20028;-82
2020/12/28 04:40:38;;;;;;;9.27;5.40;;;;;;;-1.64;87.62;96189.47;5040721;28;20029;-81
2020/12/28 04:46:30;;;;;;;8.45;4.75;;;;;;;-1.56;87.42;96180.91;5059721;28;20031;-82
2020/12/28 04:48:57;;;;;;;9.93;5.68;;;;;;;-1.64;86.97;96184.13;5057905;28;20006;-81
2020/12/28 04:51:24;;;;;;;12.80;5.63;;;;;;;-1.59;87.47;96176.09;5040448;28;20023;-81
2020/12/28 04:53:54;;;;;;;14.65;6.50;;;;;;;-1.72;87.88;96171.19;5057448;28;20060;-80
2020/12/28 04:56:20;;;;;;;11.82;6.20;;;;;;;-1.75;88.38;96171.72;5041383;28;20093;-84
2020/12/28 04:58:46;;;;;;;10.82;6.60;;;;;;;-1.55;89.25;96166.47;5057611;28;20032;-81
2020/12/28 05:01:12;;;;;;;9.57;6.47;;;;;;;-1.59;89.91;96160.00;5040758;28;20009;-81
2020/12/28 05:03:38;;;;;;;14.63;6.47;;;;;;;-1.57;90.48;96159.75;5057743;28;20016;-82
2020/12/28 05:06:03;;;;;;;;;;;;;;;-1.32;90.32;96187.44;5041174;28;20014;-82
2020/12/28 05:08:29;;;;;;;6.97;4.80;;;;;;;-1.50;90.74;96169.13;5040657;28;19969;-81
2020/12/28 05:11:05;;;;;;;7.45;5.32;;;;;;;-1.54;90.56;96151.19;5057622;28;20014;-81
2020/12/28 05:13:30;;;;;;;9.35;5.80;;;;;;;-1.42;90.27;96179.38;5057143;28;20086;-81
2020/12/28 05:15:57;;;;;;;;;;;;;;;-1.39;90.64;96181.53;5057879;28;20009;-83
2020/12/28 05:18:23;;;;;;;9.98;5.20;;;;;;;-1.91;91.25;96152.09;5057756;28;19901;-81
2020/12/28 05:20:50;;;;;;;14.45;7.30;;;;;;;-1.77;92.34;96163.97;5057222;28;20024;-83
2020/12/28 05:23:17;;;;;;;17.38;7.93;;;;;;;-1.97;93.01;96152.38;5040504;28;20017;-81
2020/12/28 05:25:45;;;;;;;11.60;7.50;;;;;;;-2.04;93.34;96146.44;5057802;28;20999;-81
2020/12/28 05:28:22;;;;;;;12.88;7.82;;;;;;;-1.85;94.19;96152.94;5040742;28;20025;-83
2020/12/28 05:30:49;;;;;;;12.70;7.05;;;;;;;-2.01;94.79;96140.56;5040300;28;20068;-81
2020/12/28 05:33:15;;;;;;;12.25;7.28;;;;;;;-1.70;95.14;96190.53;5039186;28;20034;-81
2020/12/28 05:35:41;;;;;;;15.48;8.15;;;;;;;-2.08;95.24;96137.28;5057497;28;20025;-82
2020/12/28 05:38:08;;;;;;;15.75;7.55;;;;;;;-2.06;95.97;96140.50;5057414;28;20021;-83
2020/12/28 05:40:35;;;;;;;14.15;7.47;;;;;;;-2.02;96.19;96138.94;5040425;28;20002;-80
2020/12/28 05:43:01;;;;;;;12.43;6.35;;;;;;;-2.07;96.34;96136.25;5057218;28;20049;-81
2020/12/28 05:45:27;;;;;;;10.43;6.90;;;;;;;-1.86;96.67;96138.75;5040259;28;20043;-81
2020/12/28 05:47:54;;;;;;;14.13;8.15;;;;;;;-1.95;96.73;96118.91;5039852;28;20017;-83
2020/12/28 05:50:31;;;;;;;12.23;7.60;;;;;;;-1.99;96.77;96115.13;5055809;28;20017;-85
2020/12/28 05:53:00;;;;;;;9.55;6.72;;;;;;;-1.97;97.09;96096.13;5056913;28;20021;-83
2020/12/28 05:55:28;;;;;;;14.90;7.72;;;;;;;-1.99;97.08;96106.28;5040112;28;20005;-80
2020/12/28 05:57:54;;;;;;;11.23;7.20;;;;;;;-1.88;97.21;96098.00;5040613;28;20029;-81
2020/12/28 06:00:21;;;;;;;11.52;7.93;;;;;;;-1.91;96.93;96098.53;5040122;28;20014;-81
2020/12/28 06:02:46;;;;;;;15.60;7.65;;;;;;;-1.78;97.27;96103.41;5039820;28;20029;-82
2020/12/28 06:05:21;;;;;;;15.07;6.95;;;;;;;-1.90;96.93;96094.78;5039946;28;20028;-82
2020/12/28 06:07:47;;;;;;;11.75;7.88;;;;;;;-1.81;97.32;96073.66;5039898;28;20010;-82
2020/12/28 06:10:14;;;;;;;15.30;7.68;;;;;;;-1.86;97.40;96079.00;5056886;28;20048;-83
2020/12/28 06:12:41;;;;;;;12.82;8.15;;;;;;;-1.64;96.96;96074.25;5057018;28;20022;-83
2020/12/28 06:15:19;;;;;;;13.45;7.15;;;;;;;-1.78;96.82;96086.53;5056916;28;20061;-83
2020/12/28 06:17:45;;;;;;;11.18;7.07;;;;;;;-1.68;96.91;96084.69;5056837;28;20010;-81
2020/12/28 06:20:14;;;;;;;12.80;7.72;;;;;;;-1.68;96.32;96081.19;5040647;28;20022;-82
2020/12/28 06:22:41;;;;;;;11.32;6.20;;;;;;;-1.72;96.73;96075.56;5060683;28;20018;-80
2020/12/28 06:25:17;;;;;;;16.60;6.50;;;;;;;-1.60;97.42;96078.00;5060431;28;20014;-82
2020/12/28 06:27:44;;;;;;;15.27;7.15;;;;;;;-1.74;97.32;96069.66;5043574;28;20056;-81
2020/12/28 06:30:23;;;;;;;19.13;8.20;;;;;;;-1.79;97.27;96063.50;5043433;28;20045;-80
2020/12/28 06:32:52;;;;;;;16.52;8.88;;;;;;;-1.78;98.03;96065.09;5042898;28;20013;-82
2020/12/28 06:35:17;;;;;;;13.50;6.80;;;;;;;-1.82;98.01;96066.72;5060282;28;20039;-81
2020/12/28 06:37:53;;;;;;;16.95;7.85;;;;;;;-1.54;98.12;96087.69;5043226;28;20009;-80
2020/12/28 06:40:39;;;;;;;12.50;6.63;;;;;;;-1.85;98.23;96046.59;5043129;28;20012;-83
2020/12/28 06:43:15;;;;;;;14.38;8.18;;;;;;;-1.87;98.32;96046.06;5042935;28;20042;-82
2020/12/28 06:45:42;;;;;;;14.13;8.00;;;;;;;-1.92;99.00;96029.16;5060171;28;20001;-82
2020/12/28 06:48:22;;;;;;;17.92;9.25;;;;;;;-1.81;98.93;96028.91;5059831;28;20036;-80
2020/12/28 06:50:53;;;;;;;15.80;7.85;;;;;;;-1.67;98.64;96010.47;5060031;28;20030;-81
2020/12/28 06:53:27;;;;;;;14.80;7.32;;;;;;;-1.66;98.04;95988.75;5059595;28;20041;-81
2020/12/28 06:55:53;;;;;;;11.48;7.50;;;;;;;-1.57;97.85;95998.97;5040346;28;20017;-81
2020/12/28 06:58:19;;;;;;;15.95;8.45;;;;;;;-1.58;97.18;95992.78;5043409;28;20001;-80
2020/12/28 07:00:45;;;;;;;14.98;6.97;;;;;;;-1.64;97.38;95997.34;5042894;28;20009;-81
2020/12/28 07:03:15;;;;;;;13.43;7.18;;;;;;;-1.62;97.97;95994.38;5042827;28;20057;-82
2020/12/28 07:05:41;;;;;;;18.15;7.53;;;;;;;-1.45;97.87;96005.66;5042869;28;20025;-80
2020/12/28 07:08:07;;;;;;;15.10;7.47;;;;;;;-1.54;97.89;95999.22;5059191;28;20017;-80
2020/12/28 07:10:35;;;;;;;10.77;6.60;;;;;;;-1.55;98.03;95992.25;5059458;28;20016;-82
2020/12/28 07:13:07;;;;;;;11.00;6.68;;;;;;;-1.34;97.37;96001.09;5042536;28;20025;-79
2020/12/28 07:15:37;;;;;;;11.85;7.18;;;;;;;-1.55;98.00;95983.41;5042337;28;20036;-81
2020/12/28 07:18:07;;;;;;;12.68;7.72;;;;;;;-1.61;98.52;95998.69;5042672;28;20017;-83
2020/12/28 07:20:35;;;;;;;10.23;7.07;;;;;;;-1.55;98.64;95997.63;5041951;28;20033;-83
2020/12/28 07:23:02;;;;;;;17.50;7.25;;;;;;;-1.69;98.63;95993.84;5041332;28;20033;-84
2020/12/28 07:25:27;;;;;;;12.43;6.68;;;;;;;-1.58;99.29;95992.78;5042008;28;20016;-83
2020/12/28 07:27:54;;;;;;;14.63;7.75;;;;;;;-1.67;99.02;95997.06;5059299;28;20013;-82
2020/12/28 07:30:20;;;;;;;12.32;8.38;;;;;;;-1.53;98.89;96003.50;5059205;28;20071;-83
2020/12/28 07:32:45;;;;;;;23.77;9.38;;;;;;;-1.83;98.62;95977.50;5042029;28;20021;-84
2020/12/28 07:35:10;;;;;;;;;;;;;;;-1.55;99.37;96010.22;5058692;28;20037;-85
2020/12/28 07:37:41;;;;;;;16.20;9.25;;;;;;;-1.89;99.38;95983.09;5057630;28;19923;-84
2020/12/28 07:40:07;;;;;;;16.65;9.20;;;;;;;-1.98;99.29;95966.75;5059119;28;20021;-86
2020/12/28 07:42:41;;;;;;;18.60;9.60;;;;;;;-1.98;99.97;95980.16;5058930;28;20013;-84
2020/12/28 07:45:08;;;;;;;19.95;11.00;;;;;;;-2.04;100.00;95956.31;5058209;28;20033;-85
2020/12/28 07:47:46;;;;;;;23.77;11.77;;;;;;;-1.95;100.00;95986.84;5025818;28;20034;-85
2020/12/28 07:50:16;;;;;;;16.05;9.27;;;;;;;-2.04;100.00;95977.72;5022085;28;20022;-85
2020/12/28 07:53:05;;;;;;;18.05;10.18;;;;;;;-1.87;100.00;95983.63;5038706;28;20045;-83
2020/12/28 07:55:56;;;;;;;22.33;12.02;;;;;;;-1.88;100.00;95980.16;5021984;28;20018;-83
2020/12/28 07:58:42;;;;;;;18.52;9.15;;;;;;;-1.89;99.72;95961.69;5022449;28;20024;-81
2020/12/28 08:01:26;;;;;;;16.95;9.30;;;;;;;-1.83;99.64;95971.31;5021870;28;20040;-84
2020/12/28 08:03:59;;;;;;;14.18;8.93;;;;;;;-1.78;99.47;95963.28;5038741;28;20085;-81
2020/12/28 08:06:25;;;;;;;21.05;9.32;;;;;;;-1.66;99.01;95945.88;5021689;28;20121;-84
2020/12/28 08:09:03;;;;;;;18.17;11.02;;;;;;;-1.44;99.48;95956.31;5038461;28;20021;-84
2020/12/28 08:11:32;;;;;;;22.58;11.25;;;;;;;-1.49;98.17;95960.88;5021453;28;20009;-84
2020/12/28 08:13:59;;;;;;;15.07;10.05;;;;;;;-1.59;97.92;95953.66;5021619;28;20018;-83
2020/12/28 08:16:27;;;;;;;16.63;9.68;;;;;;;-1.58;98.14;95957.94;5038574;28;20025;-80
2020/12/28 08:18:55;;;;;;;15.63;10.20;;;;;;;-1.53;98.10;95955.25;5034500;28;20053;-87
2020/12/28 08:21:24;;;;;;;16.92;9.48;;;;;;;-1.29;98.25;95988.50;5021034;28;20037;-87
2020/12/28 08:23:57;;;;;;;18.38;10.15;;;;;;;-1.32;98.42;95972.97;5019930;28;20990;-87
2020/12/28 08:26:28;;;;;;;18.42;10.05;;;;;;;-1.51;98.95;95946.97;5036095;28;20030;-86
2020/12/28 08:28:59;;;;;;;16.55;10.10;;;;;;;-1.43;98.23;95955.25;5036945;28;20053;-84
2020/12/28 08:31:25;;;;;;;18.77;8.95;;;;;;;-1.00;97.76;95982.59;5020951;28;20531;-86
2020/12/28 08:34:02;;;;;;;17.83;9.32;;;;;;;-0.64;96.40;95981.41;5021659;28;20065;-85
2020/12/28 08:36:28;;;;;;;23.05;11.63;;;;;;;-0.89;96.40;95973.44;5009085;28;20044;-88
2020/12/28 08:38:56;;;;;;;16.80;9.43;;;;;;;-0.98;96.42;95956.28;5020123;28;20030;-87
2020/12/28 08:41:21;;;;;;;17.90;9.35;;;;;;;-0.81;95.82;95965.63;5037676;28;20041;-84
2020/12/28 08:43:48;;;;;;;16.20;9.30;;;;;;;-0.89;95.44;95955.47;5019788;28;20013;-85
2020/12/28 08:46:14;;;;;;;17.70;9.70;;;;;;;-0.83;95.98;95954.38;5020250;28;20041;-86
2020/12/28 08:48:47;;;;;;;18.02;8.38;;;;;;;-0.86;96.29;95946.06;5003162;28;20014;-88
2020/12/28 08:51:14;;;;;;;16.13;10.55;;;;;;;-0.65;96.55;95958.31;5015197;28;20041;-88
2020/12/28 08:53:44;;;;;;;16.52;10.38;;;;;;;-0.29;95.59;95989.34;5029136;28;20451;-87
2020/12/28 08:56:10;;;;;;;18.92;9.20;;;;;;;-0.34;94.82;95972.44;5040113;28;20029;-87
2020/12/28 08:58:35;;;;;;;12.75;7.95;;;;;;;-0.49;95.53;95965.25;5042295;28;20041;-85
2020/12/28 09:01:03;;;;;;;14.43;9.50;;;;;;;-0.31;94.39;95983.44;5037860;28;20029;-90
2020/12/28 09:03:30;;;;;;;19.05;10.75;;;;;;;-0.57;95.84;95971.19;5022121;28;20059;-84
2020/12/28 09:05:55;;;;;;;16.92;8.27;;;;;;;-0.59;95.71;95965.28;5033132;28;20603;-87
2020/12/28 09:08:21;;;;;;;17.38;9.80;;;;;;;-0.66;95.00;95937.94;5021542;28;20093;-87
2020/12/28 09:10:46;;;;;;;;;;;;;;;-0.47;95.37;95973.81;5020420;28;20774;-89
2020/12/28 09:13:11;;;;;;;18.05;8.20;;;;;;;-0.53;95.62;95976.81;5024431;28;19913;-90
2020/12/28 09:15:37;;;;;;;;;;;;;;;-0.65;95.99;95977.09;5027677;28;20029;-91
2020/12/28 09:18:02;;;;;;;18.95;10.45;;;;;;;0.27;98.24;95956.78;5028649;28;19978;-90
2020/12/28 09:20:28;;;;;;;16.08;10.38;;;;;;;1.07;95.67;95945.31;5048876;28;20082;-90
2020/12/28 09:22:53;;;;;;;;;;;;;;;1.46;93.07;95930.91;5040597;28;20025;-87
2020/12/28 09:25:18;;;;;;;15.90;10.45;;;;;;;0.09;91.70;95887.59;5042170;28;19913;-89
2020/12/28 09:27:44;;;;;;;14.95;10.80;;;;;;;0.07;93.75;95906.66;5042336;28;20059;-89
2020/12/28 09:30:09;;;;;;;;;;;;;;;0.17;93.93;95900.41;5038960;28;20501;-89
2020/12/28 09:32:34;;;;;;;12.50;8.25;;;;;;;0.00;93.64;95916.94;5039593;28;19920;-88
2020/12/28 09:35:00;;;;;;;;;;;;;;;-0.03;93.74;95909.41;5040269;28;20494;-90
2020/12/28 09:37:25;;;;;;;21.10;10.02;;;;;;;-0.29;94.54;95879.25;5024429;28;20400;-90
2020/12/28 09:39:50;;;;;;;17.50;9.10;;;;;;;-0.06;94.75;95909.97;5037605;28;20033;-91
2020/12/28 09:42:16;;;;;;;;;;;;;;;-0.05;94.39;95900.84;5028676;28;20077;-87
2020/12/28 09:44:41;;;;;;;15.85;9.15;;;;;;;-0.16;94.80;95893.94;5024774;28;20000;-89
2020/12/28 09:47:07;;;;;;;21.75;11.23;;;;;;;-0.20;94.78;95904.44;5035537;28;20035;-86
2020/12/28 09:49:32;;;;;;;;;;;;;;;-0.14;94.81;95889.88;5035018;28;20021;-83
2020/12/28 09:51:58;;;;;;;16.15;9.27;;;;;;;-0.23;94.90;95870.06;5036560;28;19975;-87
2020/12/28 09:54:26;;;;;;;20.55;13.32;;;;;;;-0.25;96.64;95850.72;5017445;28;20071;-83
2020/12/28 09:56:52;;;;;;;19.42;11.45;;;;;;;-0.27;96.23;95839.47;5038827;28;20204;-85
2020/12/28 09:59:23;;;;;;;17.48;11.23;;;;;;;-0.20;96.01;95821.16;5021206;28;20105;-86
2020/12/28 10:01:49;;;;;;;19.77;11.52;;;;;;;-0.09;96.05;95817.31;5038694;28;20637;-91
2020/12/28 10:04:14;;;;;;;25.70;11.25;;;;;;;-0.34;95.73;95768.34;5020613;28;20053;-82
2020/12/28 10:06:40;;;;;;;23.25;13.32;;;;;;;-0.17;95.87;95812.53;5019428;28;20108;-86
2020/12/28 10:09:09;;;;;;;19.80;13.48;;;;;;;0.06;95.82;95821.78;5041271;28;20032;-86
2020/12/28 10:15:00;;;;;;;18.88;10.68;;;;;;;-0.29;96.72;95771.81;4993902;28;20064;-80
2020/12/28 10:17:41;;;;;;;20.43;12.13;;;;;;;-0.43;97.09;95730.56;5016779;28;20026;-86
2020/12/28 10:41:43;;;;;;;12.73;6.95;;;;;;;-0.31;95.70;95698.78;6061591;22;20008;-87
2020/12/28 10:44:08;;;;;;;11.07;7.63;;;;;;;-0.27;96.24;95667.59;5068179;28;20033;-88
2020/12/28 10:46:40;;;;;;;14.68;9.05;;;;;;;-0.41;96.81;95666.69;5094454;28;20048;-91
2020/12/28 10:49:06;;;;;;;16.85;8.43;;;;;;;-0.18;97.45;95695.44;5064313;28;20032;-89
2020/12/28 10:51:32;;;;;;;22.50;10.50;;;;;;;-0.28;98.27;95684.78;5062931;28;20021;-86
2020/12/28 10:53:58;;;;;;;18.70;9.63;;;;;;;-0.25;98.49;95665.41;5081803;28;20039;-92
2020/12/28 10:56:27;;;;;;;;;;;;;;;-0.03;98.06;95675.69;5089442;28;20031;-89
2020/12/28 10:59:02;;;;;;;18.50;10.38;;;;;;;-0.05;97.80;95669.81;5090494;28;19927;-84
2020/12/28 11:04:48;;;;;;;16.10;11.43;;;;;;;-0.10;96.79;95662.59;5053811;28;20045;-83
2020/12/28 11:07:19;;;;;;;15.70;10.48;;;;;;;-0.13;97.39;95652.44;5082361;28;20036;-86
2020/12/28 11:09:51;;;;;;;16.33;10.85;;;;;;;0.03;97.48;95671.06;5090236;28;20027;-86
2020/12/28 11:12:16;;;;;;;20.50;13.02;;;;;;;-0.16;97.72;95663.72;5064039;28;20078;-90
2020/12/28 11:14:45;;;;;;;21.60;10.57;;;;;;;-0.35;98.13;95609.16;5074676;28;20033;-84
2020/12/28 11:17:10;;;;;;;18.05;12.02;;;;;;;-0.31;98.28;95628.97;5087511;28;20381;-89
2020/12/28 11:59:14;;;;;;;17.95;7.82;;;;;;;0.15;97.00;95524.47;4997492;28;20062;-92
2020/12/28 12:02:20;;;;;;;13.07;6.85;;;;;;;-0.35;98.06;95487.53;4973215;28;20073;-79
2020/12/28 12:05:34;;;;;;;14.05;9.05;;;;;;;0.07;98.34;95500.13;4982819;28;20034;-90
2020/12/28 12:08:14;;;;;;;15.98;9.90;;;;;;;-0.16;98.08;95483.75;4991367;28;20042;-85
2020/12/28 12:10:40;;;;;;;12.25;8.55;;;;;;;-0.24;98.84;95475.56;4992995;28;20102;-86
2020/12/28 12:13:05;;;;;;;16.35;10.50;;;;;;;-0.43;98.56;95437.94;4975643;28;20030;-88
2020/12/28 12:15:31;;;;;;;;;;;;;;;-0.15;99.11;95473.81;4996040;28;20017;-85
2020/12/28 12:17:56;;;;;;;18.35;11.05;;;;;;;-0.01;99.09;95496.22;5005865;28;19910;-87
2020/12/28 12:20:22;;;;;;;19.38;10.32;;;;;;;0.47;100.00;95464.63;4997455;28;20086;-86
2020/12/28 12:22:47;;;;;;;;;;;;;;;0.65;98.58;95471.84;4998076;28;20088;-85
2020/12/28 12:25:12;;;;;;;14.85;9.05;;;;;;;0.58;98.04;95457.16;4996759;28;19910;-85
2020/12/28 12:27:38;;;;;;;;;;;;;;;0.21;97.48;95448.06;4998852;28;20050;-90
2020/12/28 12:30:04;;;;;;;14.00;8.57;;;;;;;0.41;99.87;95436.19;4986961;28;19910;-86
2020/12/28 12:32:29;;;;;;;18.05;9.32;;;;;;;0.46;99.86;95428.88;4966669;28;20030;-86
2020/12/28 12:34:55;;;;;;;14.60;9.18;;;;;;;-0.06;98.19;95404.94;4963230;28;20029;-83
2020/12/28 12:37:20;;;;;;;20.05;10.70;;;;;;;0.06;99.11;95423.31;4986116;28;20018;-86
2020/12/28 12:39:46;;;;;;;;;;;;;;;0.23;99.52;95423.59;4985223;28;20058;-89
2020/12/28 12:42:11;;;;;;;14.18;8.27;;;;;;;-0.01;99.29;95397.63;4992471;28;19942;-88
2020/12/28 12:44:37;;;;;;;;;;;;;;;0.07;99.99;95430.28;4986030;28;20017;-86
2020/12/28 12:47:05;;;;;;;15.07;9.00;;;;;;;0.03;100.00;95419.34;4976104;28;19934;-88